Time;durP1;ratioP1;P1;durP2;ratioP2;P2;SDS_P1;SDS_P2;PMS_P1;PMS_P2;Temp;Humidity;BMP_temperature;BMP_pressure;BME280_temperature;BME280_humidity;BME280_pressure;Samples;Min_cycle;Max_cycle;Signal;HPM_P1;HPM_P2
2022/03/13 00:00:29;;;;;;;17.00;12.80;;;5.10;99.90;;;;;;4998155;28;20135;-91
2022/03/13 00:02:55;;;;;;;24.53;12.97;;;5.10;99.90;;;;;;4997479;28;20049;-92
2022/03/13 00:05:22;;;;;;;21.03;14.77;;;5.10;99.90;;;;;;4966272;28;20038;-90
2022/03/13 00:07:48;;;;;;;23.13;14.93;;;5.30;99.90;;;;;;4998016;28;20042;-96
2022/03/13 00:10:24;;;;;;;19.73;13.30;;;5.10;99.90;;;;;;4965934;28;20038;-89
2022/03/13 00:12:49;;;;;;;21.27;13.85;;;5.10;99.90;;;;;;4997861;28;20044;-93
2022/03/13 00:15:23;;;;;;;22.48;13.05;;;5.10;99.90;;;;;;4981093;28;20046;-92
2022/03/13 00:17:50;;;;;;;19.93;12.43;;;5.00;99.90;;;;;;4997222;28;20073;-91
2022/03/13 00:20:17;;;;;;;18.80;13.20;;;5.00;99.90;;;;;;4965154;28;20046;-90
2022/03/13 00:22:44;;;;;;;21.80;13.47;;;5.00;99.90;;;;;;4998719;28;20097;-96
2022/03/13 00:25:10;;;;;;;21.33;13.13;;;5.00;99.90;;;;;;4980643;28;20052;-91
2022/03/13 00:27:36;;;;;;;18.83;13.10;;;5.00;99.90;;;;;;4997106;28;20038;-95
2022/03/13 00:30:06;;;;;;;16.70;12.27;;;5.00;99.90;;;;;;4997232;28;20081;-94
2022/03/13 00:32:32;;;;;;;17.93;12.60;;;5.00;99.90;;;;;;4997765;28;20042;-95
2022/03/13 00:34:59;;;;;;;20.83;13.27;;;5.00;99.90;;;;;;4999312;28;20048;-95
2022/03/13 00:37:25;;;;;;;20.57;14.53;;;5.00;99.90;;;;;;5014016;28;20052;-94
2022/03/13 00:39:51;;;;;;;19.77;12.83;;;5.00;99.90;;;;;;4996903;28;20046;-94
2022/03/13 00:42:17;;;;;;;22.03;13.70;;;5.10;99.90;;;;;;4980822;28;20385;-94
2022/03/13 00:44:43;;;;;;;20.87;12.23;;;5.10;99.90;;;;;;5013561;28;20042;-95
2022/03/13 00:47:09;;;;;;;19.03;13.73;;;5.20;99.90;;;;;;4997217;28;20377;-95
2022/03/13 00:49:35;;;;;;;19.27;13.17;;;5.10;99.90;;;;;;4980594;28;20041;-94
2022/03/13 00:52:01;;;;;;;21.57;13.90;;;5.10;99.90;;;;;;4981145;28;20141;-90
2022/03/13 00:54:27;;;;;;;20.93;13.53;;;5.20;99.90;;;;;;4997422;28;20045;-90
2022/03/13 00:56:56;;;;;;;18.43;13.20;;;5.30;99.90;;;;;;4980607;28;20448;-95
2022/03/13 00:59:22;;;;;;;19.00;14.10;;;5.30;99.90;;;;;;4980812;28;20045;-95
2022/03/13 01:01:48;;;;;;;19.10;13.57;;;5.40;99.90;;;;;;4980338;28;20053;-91
2022/03/13 01:04:14;;;;;;;20.47;13.57;;;5.40;99.90;;;;;;4996719;28;20046;-90
2022/03/13 01:06:41;;;;;;;21.60;13.63;;;5.50;99.90;;;;;;4980865;28;20489;-91
2022/03/13 01:09:07;;;;;;;19.43;13.23;;;5.70;99.90;;;;;;4980490;28;20046;-94
2022/03/13 01:11:33;;;;;;;21.17;13.47;;;5.70;99.90;;;;;;4980360;28;20102;-96
2022/03/13 01:13:59;;;;;;;19.80;13.67;;;5.60;99.90;;;;;;4996563;28;20070;-91
2022/03/13 01:16:27;;;;;;;22.95;13.05;;;5.70;99.90;;;;;;4980358;28;20073;-95
2022/03/13 01:18:58;;;;;;;22.17;13.38;;;5.70;99.90;;;;;;4997359;28;20042;-91
2022/03/13 01:21:26;;;;;;;18.17;13.23;;;5.70;99.90;;;;;;4996692;28;20034;-90
2022/03/13 01:23:57;;;;;;;18.73;12.63;;;5.90;99.90;;;;;;4996510;28;20140;-91
2022/03/13 01:26:23;;;;;;;18.23;12.70;;;5.90;99.90;;;;;;4996145;28;20046;-95
2022/03/13 01:28:57;;;;;;;21.77;13.70;;;5.80;99.90;;;;;;4996529;28;20052;-91
2022/03/13 01:31:25;;;;;;;20.40;13.57;;;5.80;99.90;;;;;;4996406;28;20046;-91
2022/03/13 01:33:51;;;;;;;19.67;12.83;;;5.80;99.90;;;;;;4996928;28;20046;-95
2022/03/13 01:36:17;;;;;;;19.03;13.17;;;6.00;99.90;;;;;;4983204;28;20129;-91
2022/03/13 01:38:43;;;;;;;21.38;15.32;;;5.90;99.90;;;;;;4983989;28;20096;-91
2022/03/13 01:41:09;;;;;;;20.75;12.68;;;5.90;99.90;;;;;;4967594;28;20038;-91
2022/03/13 01:43:35;;;;;;;17.52;12.95;;;6.00;99.90;;;;;;4999961;28;20073;-91
2022/03/13 01:46:03;;;;;;;20.87;13.07;;;6.30;99.90;;;;;;5000048;28;20088;-90
2022/03/13 01:48:30;;;;;;;19.25;13.02;;;6.00;99.90;;;;;;4984834;28;20549;-95
2022/03/13 01:50:56;;;;;;;20.23;13.82;;;6.00;99.90;;;;;;4983934;28;20124;-95
2022/03/13 01:53:23;;;;;;;20.10;14.63;;;6.00;99.90;;;;;;4984109;28;20366;-96
2022/03/13 01:55:49;;;;;;;19.30;12.60;;;6.00;99.90;;;;;;4999778;28;20042;-94
2022/03/13 01:58:15;;;;;;;18.90;13.20;;;5.90;99.90;;;;;;4983635;28;20037;-91
2022/03/13 02:00:41;;;;;;;19.42;13.15;;;6.00;99.90;;;;;;4984492;28;20100;-96
2022/03/13 02:03:07;;;;;;;20.35;13.55;;;5.90;99.90;;;;;;5000032;28;20042;-90
2022/03/13 02:05:35;;;;;;;18.55;13.15;;;5.80;99.90;;;;;;4999505;28;20052;-93
2022/03/13 02:08:13;;;;;;;21.85;13.60;;;5.90;99.90;;;;;;4999782;28;20053;-93
2022/03/13 02:10:39;;;;;;;20.80;13.70;;;6.00;99.90;;;;;;4999563;28;20042;-96
2022/03/13 02:13:05;;;;;;;19.77;13.40;;;6.00;99.90;;;;;;4999725;28;20045;-91
2022/03/13 02:15:32;;;;;;;17.50;12.80;;;5.80;99.90;;;;;;4985754;28;20125;-90
2022/03/13 02:18:00;;;;;;;19.92;14.57;;;5.80;99.90;;;;;;4967011;28;20136;-95
2022/03/13 02:20:27;;;;;;;18.15;12.85;;;5.80;99.90;;;;;;4983229;28;20509;-91
2022/03/13 02:23:00;;;;;;;20.88;13.88;;;5.70;99.90;;;;;;4983279;28;20133;-96
2022/03/13 02:25:31;;;;;;;19.58;13.60;;;5.70;99.90;;;;;;4999387;28;20045;-94
2022/03/13 02:27:58;;;;;;;23.13;14.40;;;5.60;99.90;;;;;;4968776;28;20544;-95
2022/03/13 02:30:26;;;;;;;20.85;14.13;;;5.70;99.90;;;;;;4984118;28;20053;-91
2022/03/13 02:32:54;;;;;;;19.02;13.57;;;5.50;99.90;;;;;;4999143;28;20085;-95
2022/03/13 02:35:20;;;;;;;20.52;14.40;;;5.60;99.90;;;;;;4983059;28;20048;-93
2022/03/13 02:37:47;;;;;;;19.70;13.32;;;5.50;99.90;;;;;;4982758;28;20048;-91
2022/03/13 02:40:22;;;;;;;21.90;13.27;;;5.60;99.90;;;;;;4999011;28;20132;-90
2022/03/13 02:42:48;;;;;;;18.77;13.47;;;5.50;99.90;;;;;;4998703;28;20042;-91
2022/03/13 02:45:35;;;;;;;20.13;13.02;;;5.60;99.90;;;;;;4983177;28;20042;-94
2022/03/13 02:48:02;;;;;;;22.30;13.88;;;5.60;99.90;;;;;;4998102;28;20041;-93
2022/03/13 02:50:28;;;;;;;22.15;14.20;;;5.70;99.90;;;;;;4982724;28;20065;-91
2022/03/13 02:52:54;;;;;;;20.30;14.32;;;5.60;99.90;;;;;;4982998;28;20374;-91
2022/03/13 02:55:20;;;;;;;20.60;13.70;;;5.60;99.90;;;;;;4966535;28;20041;-92
2022/03/13 02:57:46;;;;;;;21.73;14.60;;;5.60;99.90;;;;;;4999441;28;20042;-95
2022/03/13 03:00:13;;;;;;;20.77;14.70;;;5.70;99.90;;;;;;4982460;28;20079;-95
2022/03/13 03:02:38;;;;;;;21.73;14.48;;;5.70;99.90;;;;;;4982599;28;20078;-95
2022/03/13 03:05:06;;;;;;;24.60;14.88;;;5.70;99.90;;;;;;4966473;28;20042;-90
2022/03/13 03:07:32;;;;;;;18.45;13.98;;;5.70;99.90;;;;;;4998973;28;20504;-91
2022/03/13 03:09:58;;;;;;;19.10;13.45;;;5.70;99.90;;;;;;4982473;28;20091;-90
2022/03/13 03:12:25;;;;;;;22.27;14.43;;;5.70;99.90;;;;;;4966003;28;20105;-91
2022/03/13 03:14:51;;;;;;;23.60;15.30;;;5.70;99.90;;;;;;4998575;28;20496;-90
2022/03/13 03:17:16;;;;;;;21.15;13.50;;;5.80;99.90;;;;;;4981981;28;20084;-96
2022/03/13 03:19:43;;;;;;;24.15;14.45;;;5.70;99.90;;;;;;4966091;28;20135;-94
2022/03/13 03:22:08;;;;;;;20.52;14.55;;;5.80;99.90;;;;;;4982199;28;20073;-91
2022/03/13 03:24:34;;;;;;;21.35;14.70;;;5.80;99.90;;;;;;4998180;28;20046;-91
2022/03/13 03:27:00;;;;;;;23.65;14.73;;;5.80;99.90;;;;;;4998663;28;20038;-94
2022/03/13 03:29:27;;;;;;;21.20;15.05;;;5.90;99.90;;;;;;4982382;28;20041;-93
2022/03/13 03:31:54;;;;;;;18.02;12.82;;;5.70;99.90;;;;;;5014292;28;20050;-95
2022/03/13 03:34:22;;;;;;;21.70;14.75;;;5.70;99.90;;;;;;4998433;28;20038;-95
2022/03/13 03:36:51;;;;;;;20.58;15.23;;;5.80;99.90;;;;;;4998221;28;20073;-95
2022/03/13 03:39:19;;;;;;;20.52;14.45;;;5.70;99.90;;;;;;4998467;28;20042;-95
2022/03/13 03:41:47;;;;;;;20.75;14.52;;;5.70;99.90;;;;;;4998626;28;20045;-94
2022/03/13 03:44:14;;;;;;;20.25;14.23;;;5.70;99.90;;;;;;4998131;28;20042;-91
2022/03/13 03:46:41;;;;;;;20.60;15.15;;;5.70;99.90;;;;;;4997955;28;20128;-90
2022/03/13 03:49:08;;;;;;;21.77;14.40;;;5.70;99.90;;;;;;4997892;28;20124;-90
2022/03/13 03:51:34;;;;;;;25.15;15.05;;;5.70;99.90;;;;;;4981194;28;20062;-95
2022/03/13 03:54:01;;;;;;;22.75;15.23;;;5.70;99.90;;;;;;4997916;28;20054;-90
2022/03/13 03:56:27;;;;;;;22.00;15.85;;;5.80;99.90;;;;;;4997916;28;20557;-90
2022/03/13 03:58:53;;;;;;;22.80;16.27;;;5.70;99.90;;;;;;4998434;28;20084;-89
2022/03/13 04:01:18;;;;;;;19.85;13.70;;;5.80;99.90;;;;;;4997381;28;20048;-95
2022/03/13 04:03:44;;;;;;;19.70;14.57;;;6.00;99.90;;;;;;4981551;28;20045;-95
2022/03/13 04:06:11;;;;;;;23.20;15.15;;;5.70;99.90;;;;;;4981560;28;20519;-91
2022/03/13 04:08:37;;;;;;;21.13;14.77;;;5.90;99.90;;;;;;4965707;28;20405;-96
2022/03/13 04:11:02;;;;;;;22.55;15.18;;;5.60;99.90;;;;;;4997838;28;20423;-95
2022/03/13 04:13:28;;;;;;;22.88;14.65;;;5.40;99.90;;;;;;4982286;28;20128;-95
2022/03/13 04:15:55;;;;;;;19.27;14.95;;;5.40;99.90;;;;;;4997303;28;20104;-91
2022/03/13 04:18:21;;;;;;;23.08;15.25;;;5.30;99.90;;;;;;4997651;28;20042;-95
2022/03/13 04:20:47;;;;;;;22.97;15.17;;;5.30;99.90;;;;;;4981085;28;20060;-96
2022/03/13 04:23:13;;;;;;;23.25;14.80;;;5.20;99.90;;;;;;4965125;28;20042;-94
2022/03/13 04:25:39;;;;;;;22.85;15.73;;;5.00;99.90;;;;;;4997061;28;20050;-96
2022/03/13 04:28:08;;;;;;;24.77;16.55;;;4.90;99.90;;;;;;4966884;28;20100;-90
2022/03/13 04:30:37;;;;;;;20.35;14.85;;;5.10;99.90;;;;;;4965482;28;20050;-95
2022/03/13 04:33:03;;;;;;;23.25;15.15;;;4.70;99.90;;;;;;4997930;28;20469;-91
2022/03/13 04:35:29;;;;;;;22.85;15.52;;;4.60;99.90;;;;;;4980726;28;20063;-91
2022/03/13 04:37:55;;;;;;;22.05;15.45;;;4.80;99.90;;;;;;4964731;28;20053;-90
2022/03/13 04:40:20;;;;;;;26.05;15.95;;;4.50;99.90;;;;;;4980957;28;20100;-94
2022/03/13 04:42:46;;;;;;;22.67;16.48;;;4.50;99.90;;;;;;4981054;28;20038;-94
2022/03/13 04:45:13;;;;;;;22.45;16.20;;;4.50;99.90;;;;;;4997163;28;20447;-96
2022/03/13 04:47:39;;;;;;;22.00;15.30;;;4.50;99.90;;;;;;4997245;28;20045;-90
2022/03/13 04:50:05;;;;;;;22.38;15.75;;;4.50;99.90;;;;;;4964322;28;20204;-95
2022/03/13 04:52:31;;;;;;;24.30;15.27;;;4.60;99.90;;;;;;4964375;28;20053;-94
2022/03/13 04:54:56;;;;;;;21.30;15.10;;;4.60;99.90;;;;;;4980676;28;20046;-95
2022/03/13 04:57:22;;;;;;;19.75;15.30;;;4.70;99.90;;;;;;4982126;28;20054;-91
2022/03/13 04:59:48;;;;;;;24.30;16.20;;;4.70;99.90;;;;;;4965369;28;20077;-94
2022/03/13 05:02:13;;;;;;;21.20;15.77;;;4.80;99.90;;;;;;4964682;28;20049;-90
2022/03/13 05:04:41;;;;;;;22.92;14.95;;;4.80;99.90;;;;;;4996511;28;20136;-91
2022/03/13 05:07:07;;;;;;;23.63;15.60;;;4.90;99.90;;;;;;4980769;28;20523;-96
2022/03/13 05:09:36;;;;;;;22.02;15.80;;;4.90;99.90;;;;;;4982161;28;20104;-96
2022/03/13 05:12:05;;;;;;;22.13;15.27;;;5.00;99.90;;;;;;5000719;28;20052;-96
2022/03/13 05:14:31;;;;;;;22.77;15.25;;;5.00;99.90;;;;;;4986044;28;20064;-95
2022/03/13 05:16:58;;;;;;;20.80;14.52;;;5.00;99.90;;;;;;5000281;28;20128;-95
2022/03/13 05:19:24;;;;;;;25.08;16.25;;;5.00;99.90;;;;;;5000594;28;20508;-90
2022/03/13 05:21:49;;;;;;;22.73;14.25;;;5.00;99.90;;;;;;4967983;28;20146;-91
2022/03/13 05:24:15;;;;;;;24.02;15.10;;;5.20;99.90;;;;;;4968272;28;20046;-90
2022/03/13 05:26:42;;;;;;;18.83;14.48;;;5.00;99.90;;;;;;4968315;28;20504;-91
2022/03/13 05:29:07;;;;;;;30.80;14.23;;;5.30;99.90;;;;;;4969910;28;20439;-95
2022/03/13 05:31:33;;;;;;;22.67;14.80;;;5.10;99.90;;;;;;4984189;28;20095;-91
2022/03/13 05:33:59;;;;;;;20.00;14.95;;;4.90;99.90;;;;;;4968068;28;20519;-90
2022/03/13 05:36:25;;;;;;;20.35;14.85;;;5.20;99.90;;;;;;4967712;28;20057;-91
2022/03/13 05:38:50;;;;;;;20.83;14.98;;;4.90;99.90;;;;;;4967849;28;20042;-89
2022/03/13 05:41:18;;;;;;;21.48;14.88;;;4.90;99.90;;;;;;4983660;28;20041;-96
2022/03/13 05:43:44;;;;;;;24.08;14.82;;;4.80;99.90;;;;;;4985093;28;20041;-94
2022/03/13 05:46:10;;;;;;;22.08;14.90;;;4.90;99.90;;;;;;4983754;28;20049;-95
2022/03/13 05:48:36;;;;;;;21.17;15.38;;;4.80;99.90;;;;;;5016268;28;20045;-90
2022/03/13 05:51:02;;;;;;;22.17;13.07;;;4.80;99.90;;;;;;4983538;28;20049;-95
2022/03/13 05:53:27;;;;;;;20.63;14.32;;;4.80;99.90;;;;;;4967740;28;20535;-94
2022/03/13 05:55:53;;;;;;;20.13;14.77;;;4.80;99.90;;;;;;4967579;28;20045;-95
2022/03/13 05:58:19;;;;;;;19.85;14.80;;;4.80;99.90;;;;;;4967866;28;20046;-90
2022/03/13 06:01:00;;;;;;;23.00;15.43;;;4.80;99.90;;;;;;4968069;28;20056;-90
2022/03/13 06:03:26;;;;;;;22.75;14.05;;;4.80;99.90;;;;;;5001924;28;20099;-91
2022/03/13 06:05:52;;;;;;;19.92;14.68;;;5.00;99.90;;;;;;4983180;28;20140;-91
2022/03/13 06:08:18;;;;;;;20.88;13.63;;;4.90;99.90;;;;;;4983725;28;20064;-95
2022/03/13 06:10:43;;;;;;;20.35;14.38;;;4.90;99.90;;;;;;4968378;28;20132;-95
2022/03/13 06:13:09;;;;;;;20.13;14.13;;;5.00;99.90;;;;;;4967126;28;20037;-90
2022/03/13 06:15:37;;;;;;;19.33;14.10;;;5.20;99.90;;;;;;4967280;28;20069;-95
2022/03/13 06:18:03;;;;;;;20.52;13.13;;;5.00;99.90;;;;;;4983401;28;20082;-96
2022/03/13 06:20:29;;;;;;;20.42;13.82;;;5.00;99.90;;;;;;4999396;28;20046;-94
2022/03/13 06:22:55;;;;;;;20.27;14.00;;;5.10;99.90;;;;;;4965978;28;20038;-90
2022/03/13 06:25:20;;;;;;;20.73;13.32;;;5.30;99.90;;;;;;4967542;28;20042;-90
2022/03/13 06:27:46;;;;;;;18.83;13.77;;;5.10;99.90;;;;;;4983487;28;20045;-91
2022/03/13 06:30:14;;;;;;;18.88;13.23;;;5.40;99.90;;;;;;4999350;28;20052;-90
2022/03/13 06:32:46;;;;;;;17.25;13.23;;;5.10;99.90;;;;;;4983028;28;20421;-94
2022/03/13 06:35:13;;;;;;;19.42;13.30;;;5.20;99.90;;;;;;4998930;28;20038;-94
2022/03/13 06:37:39;;;;;;;20.95;14.18;;;5.30;99.90;;;;;;4967565;28;20038;-94
2022/03/13 06:40:06;;;;;;;21.05;13.90;;;5.30;99.90;;;;;;4998877;28;20052;-94
2022/03/13 06:42:33;;;;;;;22.10;13.80;;;5.30;99.90;;;;;;4998901;28;20119;-91
2022/03/13 06:44:59;;;;;;;17.98;12.82;;;5.50;99.90;;;;;;4983316;28;20041;-94
2022/03/13 06:47:24;;;;;;;21.10;12.90;;;5.40;99.90;;;;;;4982591;28;20408;-93
2022/03/13 06:49:50;;;;;;;18.67;12.73;;;5.40;99.90;;;;;;4966592;28;20046;-91
2022/03/13 06:52:16;;;;;;;16.23;12.50;;;5.40;99.90;;;;;;4967577;28;20392;-95
2022/03/13 06:54:43;;;;;;;19.88;13.75;;;5.40;99.90;;;;;;4982981;28;20046;-89
2022/03/13 06:57:09;;;;;;;17.45;12.75;;;5.40;99.90;;;;;;4998447;28;20088;-91
2022/03/13 06:59:35;;;;;;;20.05;12.85;;;5.50;99.90;;;;;;4983041;28;20488;-94
2022/03/13 07:02:01;;;;;;;17.65;12.63;;;5.60;99.90;;;;;;4966306;28;20137;-91
2022/03/13 07:04:27;;;;;;;17.63;12.93;;;5.50;99.90;;;;;;4967876;28;20062;-93
2022/03/13 07:06:52;;;;;;;17.15;11.93;;;5.60;99.90;;;;;;4998442;28;20057;-91
2022/03/13 07:09:18;;;;;;;17.92;11.90;;;5.70;99.90;;;;;;4966282;28;20133;-90
2022/03/13 07:11:46;;;;;;;22.45;12.15;;;5.90;99.90;;;;;;4982616;28;20377;-96
2022/03/13 07:14:12;;;;;;;17.55;12.45;;;5.90;99.90;;;;;;4982207;28;20073;-91
2022/03/13 07:16:38;;;;;;;16.88;11.65;;;6.00;99.90;;;;;;4998729;28;20050;-95
2022/03/13 07:19:04;;;;;;;20.40;12.82;;;6.10;99.90;;;;;;4983277;28;20042;-94
2022/03/13 07:21:29;;;;;;;21.42;12.80;;;6.20;89.40;;;;;;4998585;28;20081;-94
2022/03/13 07:23:55;;;;;;;16.83;12.25;;;6.30;64.90;;;;;;4982056;28;20622;-93
2022/03/13 07:26:21;;;;;;;19.00;11.63;;;6.50;14.20;;;;;;4965592;28;20092;-91
2022/03/13 07:28:47;;;;;;;17.02;11.82;;;6.50;24.00;;;;;;4998281;28;20061;-90
2022/03/13 07:31:12;;;;;;;23.20;11.48;;;7.00;1.00;;;;;;4982338;28;20060;-95
2022/03/13 07:33:38;;;;;;;16.13;10.32;;;6.80;1.00;;;;;;4981648;28;20481;-95
2022/03/13 07:36:04;;;;;;;18.67;12.02;;;7.00;1.00;;;;;;4997707;28;20049;-90
2022/03/13 07:38:30;;;;;;;17.90;12.15;;;7.10;1.00;;;;;;4982263;28;20081;-95
2022/03/13 07:40:56;;;;;;;16.80;11.60;;;7.30;1.00;;;;;;4966839;28;20046;-91
2022/03/13 07:43:22;;;;;;;14.80;10.82;;;7.40;1.00;;;;;;4982789;28;20052;-91
2022/03/13 07:45:49;;;;;;;14.63;10.38;;;7.50;1.00;;;;;;4966851;28;20100;-92
2022/03/13 07:48:15;;;;;;;16.00;10.93;;;7.50;1.00;;;;;;4982412;28;20042;-93
2022/03/13 07:50:41;;;;;;;16.92;11.30;;;7.60;1.00;;;;;;4998284;28;20042;-92
2022/03/13 07:53:07;;;;;;;16.67;11.38;;;7.60;99.90;;;;;;4982704;28;20107;-91
2022/03/13 07:55:33;;;;;;;16.70;11.20;;;7.60;99.90;;;;;;4982891;28;20045;-94
2022/03/13 07:57:59;;;;;;;14.60;10.55;;;7.50;99.90;;;;;;4983082;28;20038;-94
2022/03/13 08:00:25;;;;;;;16.55;11.45;;;7.50;99.90;;;;;;4967184;28;20048;-91
2022/03/13 08:02:53;;;;;;;15.10;10.63;;;7.50;99.90;;;;;;4981865;28;20046;-91
2022/03/13 08:05:23;;;;;;;15.63;11.52;;;7.50;99.90;;;;;;4983054;28;20042;-91
2022/03/13 08:07:52;;;;;;;19.17;11.32;;;7.50;99.90;;;;;;4997808;28;20049;-95
2022/03/13 08:10:20;;;;;;;16.98;10.68;;;7.70;99.90;;;;;;4997210;28;20049;-91
2022/03/13 08:12:48;;;;;;;17.33;11.45;;;7.50;99.90;;;;;;4982852;28;20050;-92
2022/03/13 08:15:14;;;;;;;15.57;11.25;;;7.60;99.90;;;;;;4981358;28;20062;-95
2022/03/13 08:17:41;;;;;;;19.98;11.52;;;7.60;99.90;;;;;;4980999;28;20176;-92
2022/03/13 08:20:07;;;;;;;18.08;12.10;;;7.70;99.90;;;;;;4996981;28;20132;-94
2022/03/13 08:22:33;;;;;;;15.80;10.93;;;7.90;99.90;;;;;;5013465;28;20088;-91
2022/03/13 08:24:59;;;;;;;16.90;10.25;;;8.00;99.90;;;;;;4965981;28;20568;-95
2022/03/13 08:27:25;;;;;;;14.15;10.65;;;8.20;99.90;;;;;;4997874;28;20081;-92
2022/03/13 08:29:52;;;;;;;15.68;11.45;;;8.20;99.90;;;;;;4980810;28;20096;-96
2022/03/13 08:32:18;;;;;;;18.88;11.35;;;8.30;99.90;;;;;;4997282;28;20049;-92
2022/03/13 08:34:45;;;;;;;13.80;10.55;;;8.40;99.90;;;;;;4997204;28;20042;-92
2022/03/13 08:37:12;;;;;;;13.05;9.85;;;8.50;99.90;;;;;;4980695;28;20048;-92
2022/03/13 08:39:38;;;;;;;16.85;11.07;;;8.60;99.90;;;;;;4982115;28;20136;-91
2022/03/13 08:42:05;;;;;;;15.57;11.25;;;8.70;99.90;;;;;;4980465;28;20066;-92
2022/03/13 08:44:31;;;;;;;13.77;9.77;;;8.80;41.10;;;;;;4996545;28;20452;-93
2022/03/13 08:46:58;;;;;;;14.98;10.80;;;8.90;84.80;;;;;;4980359;28;20038;-92
2022/03/13 08:49:24;;;;;;;15.88;10.68;;;9.20;47.30;;;;;;4964984;28;20042;-93
2022/03/13 08:51:50;;;;;;;14.27;10.07;;;9.40;23.30;;;;;;4980618;28;20050;-93
2022/03/13 08:54:16;;;;;;;14.82;11.38;;;9.70;1.00;;;;;;4997219;28;20493;-90
2022/03/13 08:56:42;;;;;;;18.80;12.88;;;10.00;1.00;;;;;;4964602;28;20056;-93
2022/03/13 08:59:09;;;;;;;17.33;10.23;;;10.10;1.00;;;;;;4980808;28;20046;-93
2022/03/13 09:01:35;;;;;;;12.90;10.52;;;10.30;99.90;;;;;;4996691;28;20045;-93
2022/03/13 09:04:01;;;;;;;15.27;10.75;;;10.50;1.00;;;;;;4980919;28;20382;-93
2022/03/13 09:06:27;;;;;;;15.05;10.23;;;10.90;1.00;;;;;;4980364;28;20034;-94
2022/03/13 09:08:52;;;;;;;14.18;9.43;;;11.20;99.90;;;;;;4981303;28;20045;-93
2022/03/13 09:11:18;;;;;;;16.25;10.75;;;11.40;99.90;;;;;;4980273;28;20042;-93
2022/03/13 09:13:45;;;;;;;15.40;9.77;;;11.30;99.90;;;;;;4980879;28;20068;-92
2022/03/13 09:16:10;;;;;;;15.15;10.32;;;11.10;99.90;;;;;;4980967;28;20076;-93
2022/03/13 09:18:36;;;;;;;14.02;10.25;;;11.00;90.60;;;;;;4980383;28;20041;-92
2022/03/13 09:21:02;;;;;;;16.63;9.57;;;10.80;68.90;;;;;;4964313;28;20576;-93
2022/03/13 09:23:28;;;;;;;13.73;9.30;;;10.60;30.00;;;;;;4981910;28;20097;-93
2022/03/13 09:25:55;;;;;;;14.68;9.50;;;10.50;37.50;;;;;;4964181;28;20077;-94
2022/03/13 09:28:21;;;;;;;14.45;10.05;;;10.50;1.10;;;;;;4996939;28;20377;-92
2022/03/13 09:30:48;;;;;;;13.90;9.77;;;10.40;11.10;;;;;;4964044;28;20104;-92
2022/03/13 09:33:14;;;;;;;17.73;10.23;;;10.40;13.90;;;;;;4996967;28;20046;-93
2022/03/13 09:35:40;;;;;;;19.40;9.95;;;10.40;10.80;;;;;;4980568;28;20137;-93
2022/03/13 09:38:07;;;;;;;15.25;10.57;;;10.40;1.00;;;;;;4996183;28;20074;-93
2022/03/13 09:40:34;;;;;;;14.73;10.05;;;10.50;1.00;;;;;;4996464;28;20077;-92
2022/03/13 09:43:01;;;;;;;12.15;9.50;;;10.60;1.00;;;;;;4996520;28;20077;-93
2022/03/13 09:45:27;;;;;;;13.13;9.10;;;10.70;1.00;;;;;;4996203;28;20133;-93
2022/03/13 09:47:53;;;;;;;13.32;9.82;;;10.90;1.00;;;;;;4996609;28;20378;-94
2022/03/13 09:50:22;;;;;;;16.35;10.65;;;10.80;1.00;;;;;;4996116;28;20046;-93
2022/03/13 09:52:48;;;;;;;13.77;9.57;;;10.80;1.00;;;;;;4996388;28;20057;-92
2022/03/13 09:55:14;;;;;;;13.40;9.95;;;10.80;1.00;;;;;;4980010;28;20045;-92
2022/03/13 09:57:41;;;;;;;13.10;9.95;;;10.90;1.00;;;;;;4983493;28;20048;-92
2022/03/13 10:00:11;;;;;;;15.80;10.32;;;11.00;1.00;;;;;;4967965;28;20042;-92
2022/03/13 10:02:38;;;;;;;14.23;10.15;;;11.00;1.00;;;;;;5000154;28;20546;-94
2022/03/13 10:05:07;;;;;;;14.98;10.20;;;11.10;1.00;;;;;;4999565;28;20078;-93
2022/03/13 10:07:51;;;;;;;13.93;9.43;;;11.30;1.00;;;;;;4999917;28;20052;-92
2022/03/13 10:10:16;;;;;;;16.48;9.80;;;11.40;1.00;;;;;;4999588;28;20046;-93
2022/03/13 10:12:42;;;;;;;15.65;10.25;;;11.80;5.80;;;;;;4967669;28;20042;-93
2022/03/13 10:15:09;;;;;;;12.52;9.70;;;12.60;1.00;;;;;;4984050;28;20042;-93
2022/03/13 10:17:36;;;;;;;11.65;9.05;;;13.60;1.00;;;;;;4967009;28;20546;-93
2022/03/13 10:20:27;;;;;;;15.93;8.98;;;14.50;1.00;;;;;;4999496;28;20137;-93
2022/03/13 10:22:59;;;;;;;14.68;9.82;;;15.50;1.00;;;;;;4999407;28;20074;-94
2022/03/13 10:25:33;;;;;;;14.32;9.52;;;16.10;1.00;;;;;;4999563;28;20106;-93
2022/03/13 10:28:22;;;;;;;13.77;9.90;;;16.40;1.00;;;;;;5000626;28;20038;-93
2022/03/13 10:31:11;;;;;;;13.02;10.05;;;16.90;1.00;;;;;;4999365;28;20045;-92
2022/03/13 10:33:43;;;;;;;13.65;10.32;;;17.30;1.00;;;;;;5015891;28;20133;-93
2022/03/13 10:36:31;;;;;;;12.30;10.20;;;17.50;1.00;;;;;;4999324;28;20184;-93
2022/03/13 10:38:58;;;;;;;11.63;9.95;;;17.60;1.00;;;;;;4999337;28;20473;-94
2022/03/13 10:41:47;;;;;;;14.75;10.65;;;17.80;1.00;;;;;;4967853;28;20045;-94
2022/03/13 10:44:25;;;;;;;13.32;9.75;;;18.00;1.00;;;;;;4999300;28;20570;-93
2022/03/13 10:46:56;;;;;;;14.90;10.20;;;18.20;1.00;;;;;;4999072;28;20507;-94
2022/03/13 10:49:52;;;;;;;12.60;9.30;;;18.50;1.00;;;;;;4998880;28;20088;-94
2022/03/13 10:52:29;;;;;;;19.08;10.52;;;18.70;1.00;;;;;;4978807;28;20502;-94
2022/03/13 10:55:16;;;;;;;14.25;9.65;;;18.80;1.00;;;;;;5001205;28;20050;-93
2022/03/13 10:57:57;;;;;;;13.15;10.15;;;18.80;1.00;;;;;;4998254;28;20057;-93
2022/03/13 11:00:24;;;;;;;13.20;10.95;;;19.20;1.00;;;;;;4998654;28;20050;-93
2022/03/13 11:02:50;;;;;;;13.70;10.35;;;19.40;1.00;;;;;;4982545;28;20050;-95
2022/03/13 11:05:16;;;;;;;13.10;10.07;;;19.60;1.00;;;;;;4998548;28;20070;-92
2022/03/13 11:07:42;;;;;;;14.43;10.50;;;19.80;1.00;;;;;;4997812;28;20050;-94
2022/03/13 11:10:11;;;;;;;18.77;10.10;;;19.60;1.00;;;;;;4999193;28;20042;-92
2022/03/13 11:12:40;;;;;;;13.40;9.75;;;19.60;1.00;;;;;;4966514;28;20049;-93
2022/03/13 11:15:08;;;;;;;14.23;11.05;;;19.60;1.00;;;;;;4982259;28;20049;-93
2022/03/13 11:17:35;;;;;;;12.18;10.00;;;19.40;1.00;;;;;;4982317;28;20056;-93
2022/03/13 11:20:04;;;;;;;16.63;10.70;;;19.60;1.00;;;;;;4998185;28;20042;-92
2022/03/13 11:22:30;;;;;;;14.13;10.70;;;19.80;1.00;;;;;;5015203;28;20045;-94
2022/03/13 11:25:07;;;;;;;11.85;10.05;;;20.00;1.00;;;;;;4982267;28;20378;-93
2022/03/13 11:27:35;;;;;;;12.65;9.98;;;20.00;1.00;;;;;;4998413;28;20123;-94
2022/03/13 11:30:01;;;;;;;13.05;10.13;;;20.30;1.00;;;;;;4998102;28;20038;-93
2022/03/13 11:32:30;;;;;;;13.98;10.15;;;20.80;1.00;;;;;;4981928;28;20046;-94
2022/03/13 11:35:18;;;;;;;12.40;9.90;;;21.20;1.00;;;;;;4998401;28;20050;-93
2022/03/13 11:37:45;;;;;;;13.55;10.50;;;21.40;1.00;;;;;;4998145;28;20459;-91
2022/03/13 11:40:13;;;;;;;12.73;10.63;;;21.30;1.00;;;;;;4998288;28;20492;-93
2022/03/13 11:43:04;;;;;;;14.48;10.25;;;21.30;1.00;;;;;;4981941;28;20194;-94
2022/03/13 11:45:33;;;;;;;13.32;10.57;;;21.50;1.00;;;;;;4998160;28;20081;-92
2022/03/13 11:48:05;;;;;;;11.10;9.23;;;21.60;1.00;;;;;;4981821;28;20129;-93
2022/03/13 11:50:48;;;;;;;11.35;9.25;;;21.60;1.00;;;;;;5015680;28;20493;-93
2022/03/13 11:53:17;;;;;;;12.18;9.55;;;21.60;1.00;;;;;;4997868;28;20053;-94
2022/03/13 11:56:09;;;;;;;10.80;9.25;;;21.50;1.00;;;;;;4997442;28;20049;-94
2022/03/13 11:58:42;;;;;;;13.23;9.67;;;21.60;1.00;;;;;;4997800;28;20042;-93
2022/03/13 12:01:15;;;;;;;14.20;9.00;;;21.30;1.00;;;;;;4998242;28;20320;-92
2022/03/13 12:04:21;;;;;;;13.13;9.82;;;21.00;1.00;;;;;;4998422;28;20216;-94
2022/03/13 12:06:48;;;;;;;13.50;9.10;;;20.90;1.00;;;;;;4997806;28;20378;-93
2022/03/13 12:09:15;;;;;;;12.90;9.77;;;20.70;1.00;;;;;;4981627;28;20099;-94
2022/03/13 12:11:46;;;;;;;13.05;9.35;;;20.80;1.00;;;;;;4997515;28;20505;-94
2022/03/13 12:14:14;;;;;;;10.82;9.07;;;20.70;1.00;;;;;;4981287;28;20053;-95
2022/03/13 12:16:42;;;;;;;13.10;9.02;;;20.80;1.00;;;;;;4966635;28;20531;-94
2022/03/13 12:19:09;;;;;;;11.18;8.90;;;20.80;1.00;;;;;;4981150;28;20046;-93
2022/03/13 12:21:36;;;;;;;13.32;9.45;;;20.70;1.00;;;;;;4981154;28;20073;-93
2022/03/13 12:24:16;;;;;;;13.50;10.68;;;20.60;1.00;;;;;;4965142;28;20511;-94
2022/03/13 12:26:46;;;;;;;11.55;8.90;;;20.40;1.00;;;;;;4997230;28;20042;-93
2022/03/13 12:29:17;;;;;;;13.02;9.35;;;20.30;1.00;;;;;;4997176;28;20048;-94
2022/03/13 12:31:53;;;;;;;10.88;8.32;;;20.10;1.00;;;;;;4997243;28;20060;-94
2022/03/13 12:34:25;;;;;;;10.38;8.73;;;20.10;1.00;;;;;;4982263;28;20041;-93
2022/03/13 12:36:53;;;;;;;10.30;8.40;;;20.10;1.00;;;;;;4980902;28;20046;-93
2022/03/13 12:39:20;;;;;;;11.02;8.85;;;20.20;1.00;;;;;;4981241;28;20401;-94
2022/03/13 12:41:58;;;;;;;12.80;8.95;;;20.30;1.00;;;;;;4980899;28;20056;-93